Oak Grove, Georgia
Current Conditions -  °F | °C
As of 12:47 PM on Tuesday 21 Oct 2014 (Local Time) from KRYY Reporting Station
Scattered Clouds Scattered Clouds  
Wind Chill: 68°   Ceiling: Unl
Heat Index: 68°   Visibility: 10mi
Dew Point: 52°   Wind: 8mph
Humidity: 56%   Direction: 300°WNW
Pressure: 30.05"   Gusts: NA
Location:  34.0445°N, 84.7171°W
Report Text: KRYY 211647Z 30007KT 10SM SCT050 20/11 A3005
Loading
Personal Weather Stations






























Interactive Weather Map
Tropical Storm Tracking
New forecast layout! Learn more

10-Day Weather Forecast

Advertisements
Track Severe Weather on mobile